sensor_id;sensor_type;location;lat;lon;timestamp;P1;durP1;ratioP1;P2;durP2;ratioP2
18259;SDS011;9256;52.236;5.712;2024-01-06T00:00:05;25.67;;;9.10;;
18259;SDS011;9256;52.236;5.712;2024-01-06T00:02:33;26.40;;;9.10;;
18259;SDS011;9256;52.236;5.712;2024-01-06T00:05:01;25.93;;;8.47;;
18259;SDS011;9256;52.236;5.712;2024-01-06T00:07:28;25.53;;;8.63;;
18259;SDS011;9256;52.236;5.712;2024-01-06T00:09:56;24.37;;;8.60;;
18259;SDS011;9256;52.236;5.712;2024-01-06T00:12:25;26.17;;;8.80;;
18259;SDS011;9256;52.236;5.712;2024-01-06T00:14:52;26.77;;;9.00;;
18259;SDS011;9256;52.236;5.712;2024-01-06T00:17:20;29.98;;;11.55;;
18259;SDS011;9256;52.236;5.712;2024-01-06T00:19:47;26.13;;;9.23;;
18259;SDS011;9256;52.236;5.712;2024-01-06T00:22:17;27.00;;;9.03;;
18259;SDS011;9256;52.236;5.712;2024-01-06T00:24:44;27.20;;;9.37;;
18259;SDS011;9256;52.236;5.712;2024-01-06T00:27:12;25.70;;;9.00;;
18259;SDS011;9256;52.236;5.712;2024-01-06T00:29:41;30.00;;;12.23;;
18259;SDS011;9256;52.236;5.712;2024-01-06T00:32:08;28.00;;;9.53;;
18259;SDS011;9256;52.236;5.712;2024-01-06T00:34:35;25.53;;;8.70;;
18259;SDS011;9256;52.236;5.712;2024-01-06T00:37:02;27.70;;;9.43;;
18259;SDS011;9256;52.236;5.712;2024-01-06T00:39:31;24.37;;;8.57;;
18259;SDS011;9256;52.236;5.712;2024-01-06T00:41:58;26.20;;;8.57;;
18259;SDS011;9256;52.236;5.712;2024-01-06T00:44:25;29.77;;;9.33;;
18259;SDS011;9256;52.236;5.712;2024-01-06T00:46:53;29.27;;;9.90;;
18259;SDS011;9256;52.236;5.712;2024-01-06T00:49:20;29.77;;;9.80;;
18259;SDS011;9256;52.236;5.712;2024-01-06T00:51:47;31.10;;;9.77;;
18259;SDS011;9256;52.236;5.712;2024-01-06T00:54:14;37.33;;;10.43;;
18259;SDS011;9256;52.236;5.712;2024-01-06T00:56:43;30.03;;;9.70;;
18259;SDS011;9256;52.236;5.712;2024-01-06T00:59:10;33.73;;;10.50;;
18259;SDS011;9256;52.236;5.712;2024-01-06T01:01:37;29.77;;;9.53;;
18259;SDS011;9256;52.236;5.712;2024-01-06T01:04:04;32.13;;;10.13;;
18259;SDS011;9256;52.236;5.712;2024-01-06T01:06:31;31.70;;;10.10;;
18259;SDS011;9256;52.236;5.712;2024-01-06T01:08:58;31.27;;;10.33;;
18259;SDS011;9256;52.236;5.712;2024-01-06T01:11:25;34.73;;;10.83;;
18259;SDS011;9256;52.236;5.712;2024-01-06T01:13:53;33.90;;;10.20;;
18259;SDS011;9256;52.236;5.712;2024-01-06T01:16:20;39.73;;;11.27;;
18259;SDS011;9256;52.236;5.712;2024-01-06T01:18:48;36.27;;;11.13;;
18259;SDS011;9256;52.236;5.712;2024-01-06T01:21:15;38.27;;;11.03;;
18259;SDS011;9256;52.236;5.712;2024-01-06T01:23:42;40.53;;;11.67;;
18259;SDS011;9256;52.236;5.712;2024-01-06T01:26:09;38.17;;;12.00;;
18259;SDS011;9256;52.236;5.712;2024-01-06T01:28:37;43.43;;;12.20;;
18259;SDS011;9256;52.236;5.712;2024-01-06T01:31:05;41.07;;;11.47;;
18259;SDS011;9256;52.236;5.712;2024-01-06T01:33:33;41.77;;;12.67;;
18259;SDS011;9256;52.236;5.712;2024-01-06T01:36:00;48.70;;;14.73;;
18259;SDS011;9256;52.236;5.712;2024-01-06T01:38:27;41.37;;;13.07;;
18259;SDS011;9256;52.236;5.712;2024-01-06T01:40:54;43.97;;;13.07;;
18259;SDS011;9256;52.236;5.712;2024-01-06T01:43:21;40.03;;;12.30;;
18259;SDS011;9256;52.236;5.712;2024-01-06T01:45:50;42.33;;;12.50;;
18259;SDS011;9256;52.236;5.712;2024-01-06T01:48:19;42.73;;;12.33;;
18259;SDS011;9256;52.236;5.712;2024-01-06T01:50:46;50.30;;;17.63;;
18259;SDS011;9256;52.236;5.712;2024-01-06T01:53:14;44.90;;;14.13;;
18259;SDS011;9256;52.236;5.712;2024-01-06T01:55:41;44.63;;;13.33;;
18259;SDS011;9256;52.236;5.712;2024-01-06T01:58:09;43.77;;;13.33;;
18259;SDS011;9256;52.236;5.712;2024-01-06T02:00:37;42.23;;;12.70;;
18259;SDS011;9256;52.236;5.712;2024-01-06T02:03:04;42.77;;;12.97;;
18259;SDS011;9256;52.236;5.712;2024-01-06T02:05:34;43.23;;;13.50;;
18259;SDS011;9256;52.236;5.712;2024-01-06T02:08:02;45.33;;;13.43;;
18259;SDS011;9256;52.236;5.712;2024-01-06T02:10:29;47.53;;;13.17;;
18259;SDS011;9256;52.236;5.712;2024-01-06T02:12:56;51.07;;;16.53;;
18259;SDS011;9256;52.236;5.712;2024-01-06T02:15:24;46.07;;;13.97;;
18259;SDS011;9256;52.236;5.712;2024-01-06T02:17:51;43.90;;;12.97;;
18259;SDS011;9256;52.236;5.712;2024-01-06T02:20:18;42.23;;;13.20;;
18259;SDS011;9256;52.236;5.712;2024-01-06T02:22:50;46.07;;;13.10;;
18259;SDS011;9256;52.236;5.712;2024-01-06T02:25:17;44.27;;;12.23;;
18259;SDS011;9256;52.236;5.712;2024-01-06T02:27:45;48.10;;;12.90;;
18259;SDS011;9256;52.236;5.712;2024-01-06T02:30:12;46.43;;;13.67;;
18259;SDS011;9256;52.236;5.712;2024-01-06T02:32:39;49.00;;;13.53;;
18259;SDS011;9256;52.236;5.712;2024-01-06T02:35:06;48.53;;;14.10;;
18259;SDS011;9256;52.236;5.712;2024-01-06T02:37:34;58.33;;;19.17;;
18259;SDS011;9256;52.236;5.712;2024-01-06T02:40:03;49.97;;;15.30;;
18259;SDS011;9256;52.236;5.712;2024-01-06T02:42:30;50.47;;;14.10;;
18259;SDS011;9256;52.236;5.712;2024-01-06T02:44:57;50.27;;;14.90;;
18259;SDS011;9256;52.236;5.712;2024-01-06T02:47:24;50.90;;;14.77;;
18259;SDS011;9256;52.236;5.712;2024-01-06T02:49:52;52.97;;;14.37;;
18259;SDS011;9256;52.236;5.712;2024-01-06T02:52:19;51.67;;;14.43;;
18259;SDS011;9256;52.236;5.712;2024-01-06T02:54:47;49.33;;;14.87;;
18259;SDS011;9256;52.236;5.712;2024-01-06T02:57:16;50.60;;;14.00;;
18259;SDS011;9256;52.236;5.712;2024-01-06T02:59:43;55.77;;;15.03;;
18259;SDS011;9256;52.236;5.712;2024-01-06T03:02:11;51.17;;;15.00;;
18259;SDS011;9256;52.236;5.712;2024-01-06T03:04:38;52.47;;;15.13;;
18259;SDS011;9256;52.236;5.712;2024-01-06T03:07:05;53.93;;;15.43;;
18259;SDS011;9256;52.236;5.712;2024-01-06T03:09:32;57.60;;;15.53;;
18259;SDS011;9256;52.236;5.712;2024-01-06T03:11:59;67.67;;;21.53;;
18259;SDS011;9256;52.236;5.712;2024-01-06T03:14:28;57.90;;;17.33;;
18259;SDS011;9256;52.236;5.712;2024-01-06T03:16:55;53.57;;;15.13;;
18259;SDS011;9256;52.236;5.712;2024-01-06T03:19:23;54.40;;;16.03;;
18259;SDS011;9256;52.236;5.712;2024-01-06T03:21:52;49.63;;;14.47;;
18259;SDS011;9256;52.236;5.712;2024-01-06T03:24:20;47.37;;;13.50;;
18259;SDS011;9256;52.236;5.712;2024-01-06T03:26:50;42.00;;;12.93;;
18259;SDS011;9256;52.236;5.712;2024-01-06T03:29:17;46.70;;;13.20;;
18259;SDS011;9256;52.236;5.712;2024-01-06T03:31:46;41.50;;;12.33;;
18259;SDS011;9256;52.236;5.712;2024-01-06T03:34:13;42.90;;;12.10;;
18259;SDS011;9256;52.236;5.712;2024-01-06T03:36:40;42.87;;;11.70;;
18259;SDS011;9256;52.236;5.712;2024-01-06T03:39:07;41.83;;;12.30;;
18259;SDS011;9256;52.236;5.712;2024-01-06T03:41:35;38.17;;;11.67;;
18259;SDS011;9256;52.236;5.712;2024-01-06T03:44:02;42.63;;;12.17;;
18259;SDS011;9256;52.236;5.712;2024-01-06T03:46:30;38.83;;;10.93;;
18259;SDS011;9256;52.236;5.712;2024-01-06T03:48:58;33.43;;;10.77;;
18259;SDS011;9256;52.236;5.712;2024-01-06T03:51:25;36.67;;;10.00;;
18259;SDS011;9256;52.236;5.712;2024-01-06T03:53:53;38.87;;;10.60;;
18259;SDS011;9256;52.236;5.712;2024-01-06T03:56:20;33.53;;;10.23;;
18259;SDS011;9256;52.236;5.712;2024-01-06T03:58:48;32.17;;;9.13;;
18259;SDS011;9256;52.236;5.712;2024-01-06T04:01:15;34.20;;;9.60;;
18259;SDS011;9256;52.236;5.712;2024-01-06T04:03:42;30.30;;;9.03;;
18259;SDS011;9256;52.236;5.712;2024-01-06T04:06:10;30.37;;;8.87;;
18259;SDS011;9256;52.236;5.712;2024-01-06T04:08:38;29.43;;;9.13;;
18259;SDS011;9256;52.236;5.712;2024-01-06T04:11:05;30.87;;;9.37;;
18259;SDS011;9256;52.236;5.712;2024-01-06T04:13:33;31.50;;;8.73;;
18259;SDS011;9256;52.236;5.712;2024-01-06T04:16:00;29.33;;;8.73;;
18259;SDS011;9256;52.236;5.712;2024-01-06T04:18:27;31.97;;;9.20;;
18259;SDS011;9256;52.236;5.712;2024-01-06T04:20:54;35.97;;;9.70;;
18259;SDS011;9256;52.236;5.712;2024-01-06T04:23:23;29.33;;;9.40;;
18259;SDS011;9256;52.236;5.712;2024-01-06T04:25:51;34.57;;;9.73;;
18259;SDS011;9256;52.236;5.712;2024-01-06T04:28:18;32.50;;;9.90;;
18259;SDS011;9256;52.236;5.712;2024-01-06T04:30:45;32.20;;;9.83;;
18259;SDS011;9256;52.236;5.712;2024-01-06T04:33:12;37.90;;;13.57;;
18259;SDS011;9256;52.236;5.712;2024-01-06T04:35:40;32.07;;;10.73;;
18259;SDS011;9256;52.236;5.712;2024-01-06T04:38:07;31.73;;;10.37;;
18259;SDS011;9256;52.236;5.712;2024-01-06T04:40:36;31.57;;;10.23;;
18259;SDS011;9256;52.236;5.712;2024-01-06T04:43:03;33.40;;;10.07;;
18259;SDS011;9256;52.236;5.712;2024-01-06T04:45:30;33.27;;;10.30;;
18259;SDS011;9256;52.236;5.712;2024-01-06T04:47:57;31.70;;;9.80;;
18259;SDS011;9256;52.236;5.712;2024-01-06T04:50:25;31.53;;;10.13;;
18259;SDS011;9256;52.236;5.712;2024-01-06T04:52:52;31.93;;;9.97;;
18259;SDS011;9256;52.236;5.712;2024-01-06T04:55:19;34.13;;;10.37;;
18259;SDS011;9256;52.236;5.712;2024-01-06T04:57:48;31.40;;;10.30;;
18259;SDS011;9256;52.236;5.712;2024-01-06T05:00:15;33.30;;;10.90;;
18259;SDS011;9256;52.236;5.712;2024-01-06T05:02:43;32.43;;;10.03;;
18259;SDS011;9256;52.236;5.712;2024-01-06T05:05:10;31.67;;;11.00;;
18259;SDS011;9256;52.236;5.712;2024-01-06T05:07:37;31.90;;;10.27;;
18259;SDS011;9256;52.236;5.712;2024-01-06T05:10:05;30.80;;;10.03;;
18259;SDS011;9256;52.236;5.712;2024-01-06T05:12:32;30.57;;;9.90;;
18259;SDS011;9256;52.236;5.712;2024-01-06T05:15:01;28.43;;;9.70;;
18259;SDS011;9256;52.236;5.712;2024-01-06T05:17:29;30.80;;;10.27;;
18259;SDS011;9256;52.236;5.712;2024-01-06T05:19:56;30.67;;;10.70;;
18259;SDS011;9256;52.236;5.712;2024-01-06T05:22:23;32.73;;;10.50;;
18259;SDS011;9256;52.236;5.712;2024-01-06T05:24:50;26.67;;;9.67;;
18259;SDS011;9256;52.236;5.712;2024-01-06T05:27:18;30.63;;;10.47;;
18259;SDS011;9256;52.236;5.712;2024-01-06T05:29:45;31.17;;;9.47;;
18259;SDS011;9256;52.236;5.712;2024-01-06T05:32:15;27.00;;;10.13;;
18259;SDS011;9256;52.236;5.712;2024-01-06T05:34:43;27.63;;;9.93;;
18259;SDS011;9256;52.236;5.712;2024-01-06T05:37:10;28.67;;;10.50;;
18259;SDS011;9256;52.236;5.712;2024-01-06T05:39:38;27.13;;;9.70;;
18259;SDS011;9256;52.236;5.712;2024-01-06T05:42:05;29.30;;;10.50;;
18259;SDS011;9256;52.236;5.712;2024-01-06T05:44:35;29.97;;;10.10;;
18259;SDS011;9256;52.236;5.712;2024-01-06T05:47:03;31.37;;;10.93;;
18259;SDS011;9256;52.236;5.712;2024-01-06T05:49:31;30.20;;;10.10;;
18259;SDS011;9256;52.236;5.712;2024-01-06T05:51:58;29.93;;;10.00;;
18259;SDS011;9256;52.236;5.712;2024-01-06T05:54:26;29.33;;;10.57;;
18259;SDS011;9256;52.236;5.712;2024-01-06T05:56:53;28.77;;;10.13;;
18259;SDS011;9256;52.236;5.712;2024-01-06T05:59:20;34.67;;;15.18;;
18259;SDS011;9256;52.236;5.712;2024-01-06T06:01:47;28.83;;;11.13;;
18259;SDS011;9256;52.236;5.712;2024-01-06T06:04:14;26.80;;;10.30;;
18259;SDS011;9256;52.236;5.712;2024-01-06T06:06:43;29.37;;;10.17;;
18259;SDS011;9256;52.236;5.712;2024-01-06T06:09:10;27.77;;;10.27;;
18259;SDS011;9256;52.236;5.712;2024-01-06T06:11:38;28.70;;;9.50;;
18259;SDS011;9256;52.236;5.712;2024-01-06T06:14:05;28.20;;;9.67;;
18259;SDS011;9256;52.236;5.712;2024-01-06T06:16:32;29.73;;;10.03;;
18259;SDS011;9256;52.236;5.712;2024-01-06T06:18:59;29.03;;;10.43;;
18259;SDS011;9256;52.236;5.712;2024-01-06T06:21:27;26.87;;;9.90;;
18259;SDS011;9256;52.236;5.712;2024-01-06T06:23:56;28.87;;;10.10;;
18259;SDS011;9256;52.236;5.712;2024-01-06T06:26:23;28.90;;;10.60;;
18259;SDS011;9256;52.236;5.712;2024-01-06T06:28:50;25.47;;;9.03;;
18259;SDS011;9256;52.236;5.712;2024-01-06T06:31:17;28.80;;;9.50;;
18259;SDS011;9256;52.236;5.712;2024-01-06T06:33:45;26.00;;;9.00;;
18259;SDS011;9256;52.236;5.712;2024-01-06T06:36:12;27.60;;;9.23;;
18259;SDS011;9256;52.236;5.712;2024-01-06T06:38:39;26.60;;;9.43;;
18259;SDS011;9256;52.236;5.712;2024-01-06T06:41:07;25.90;;;8.87;;
18259;SDS011;9256;52.236;5.712;2024-01-06T06:43:35;24.87;;;9.37;;
18259;SDS011;9256;52.236;5.712;2024-01-06T06:46:02;24.83;;;9.43;;
18259;SDS011;9256;52.236;5.712;2024-01-06T06:48:29;28.00;;;9.30;;
18259;SDS011;9256;52.236;5.712;2024-01-06T06:50:56;26.80;;;9.27;;
18259;SDS011;9256;52.236;5.712;2024-01-06T06:53:24;29.57;;;9.53;;
18259;SDS011;9256;52.236;5.712;2024-01-06T06:55:51;29.90;;;9.43;;
18259;SDS011;9256;52.236;5.712;2024-01-06T06:58:19;28.87;;;9.33;;
18259;SDS011;9256;52.236;5.712;2024-01-06T07:00:47;30.60;;;9.53;;
18259;SDS011;9256;52.236;5.712;2024-01-06T07:03:14;30.83;;;9.83;;
18259;SDS011;9256;52.236;5.712;2024-01-06T07:05:41;29.10;;;8.90;;
18259;SDS011;9256;52.236;5.712;2024-01-06T07:08:08;31.53;;;10.07;;
18259;SDS011;9256;52.236;5.712;2024-01-06T07:10:35;32.70;;;8.97;;
18259;SDS011;9256;52.236;5.712;2024-01-06T07:13:03;30.93;;;10.57;;
18259;SDS011;9256;52.236;5.712;2024-01-06T07:15:31;30.27;;;10.30;;
18259;SDS011;9256;52.236;5.712;2024-01-06T07:17:59;38.80;;;14.27;;
18259;SDS011;9256;52.236;5.712;2024-01-06T07:20:26;36.40;;;12.23;;
18259;SDS011;9256;52.236;5.712;2024-01-06T07:22:53;38.65;;;15.18;;
18259;SDS011;9256;52.236;5.712;2024-01-06T07:25:20;33.80;;;11.63;;
18259;SDS011;9256;52.236;5.712;2024-01-06T07:27:47;30.80;;;11.17;;
18259;SDS011;9256;52.236;5.712;2024-01-06T07:30:14;39.83;;;11.77;;
18259;SDS011;9256;52.236;5.712;2024-01-06T07:32:43;34.10;;;10.97;;
18259;SDS011;9256;52.236;5.712;2024-01-06T07:35:10;32.87;;;10.60;;
18259;SDS011;9256;52.236;5.712;2024-01-06T07:37:37;34.63;;;11.23;;
18259;SDS011;9256;52.236;5.712;2024-01-06T07:40:05;30.80;;;10.43;;
18259;SDS011;9256;52.236;5.712;2024-01-06T07:42:32;33.33;;;10.77;;
18259;SDS011;9256;52.236;5.712;2024-01-06T07:44:59;34.30;;;9.67;;
18259;SDS011;9256;52.236;5.712;2024-01-06T07:47:27;31.67;;;10.40;;
18259;SDS011;9256;52.236;5.712;2024-01-06T07:49:56;33.67;;;10.40;;
18259;SDS011;9256;52.236;5.712;2024-01-06T07:52:25;34.00;;;10.73;;
18259;SDS011;9256;52.236;5.712;2024-01-06T07:54:52;31.23;;;10.33;;
18259;SDS011;9256;52.236;5.712;2024-01-06T07:57:20;35.90;;;10.90;;
18259;SDS011;9256;52.236;5.712;2024-01-06T07:59:47;32.80;;;10.17;;
18259;SDS011;9256;52.236;5.712;2024-01-06T08:02:17;31.40;;;10.13;;
18259;SDS011;9256;52.236;5.712;2024-01-06T08:04:44;34.37;;;10.30;;
18259;SDS011;9256;52.236;5.712;2024-01-06T08:07:13;31.07;;;10.27;;
18259;SDS011;9256;52.236;5.712;2024-01-06T08:09:40;30.17;;;9.93;;
18259;SDS011;9256;52.236;5.712;2024-01-06T08:12:07;33.30;;;9.87;;
18259;SDS011;9256;52.236;5.712;2024-01-06T08:14:35;29.27;;;10.77;;
18259;SDS011;9256;52.236;5.712;2024-01-06T08:17:02;35.57;;;11.63;;
18259;SDS011;9256;52.236;5.712;2024-01-06T08:19:29;30.80;;;10.77;;
18259;SDS011;9256;52.236;5.712;2024-01-06T08:21:58;31.17;;;10.43;;
18259;SDS011;9256;52.236;5.712;2024-01-06T08:24:26;30.97;;;10.80;;
18259;SDS011;9256;52.236;5.712;2024-01-06T08:26:53;29.67;;;10.47;;
18259;SDS011;9256;52.236;5.712;2024-01-06T08:29:21;36.10;;;10.63;;
18259;SDS011;9256;52.236;5.712;2024-01-06T08:31:48;30.10;;;10.23;;
18259;SDS011;9256;52.236;5.712;2024-01-06T08:34:17;30.70;;;10.30;;
18259;SDS011;9256;52.236;5.712;2024-01-06T08:36:44;28.07;;;9.80;;
18259;SDS011;9256;52.236;5.712;2024-01-06T08:39:12;31.93;;;10.70;;
18259;SDS011;9256;52.236;5.712;2024-01-06T08:41:40;25.53;;;10.10;;
18259;SDS011;9256;52.236;5.712;2024-01-06T08:44:07;35.47;;;12.53;;
18259;SDS011;9256;52.236;5.712;2024-01-06T08:46:35;29.33;;;11.17;;
18259;SDS011;9256;52.236;5.712;2024-01-06T08:49:02;33.88;;;13.43;;
18259;SDS011;9256;52.236;5.712;2024-01-06T08:51:29;27.47;;;11.20;;
18259;SDS011;9256;52.236;5.712;2024-01-06T08:53:56;27.87;;;9.90;;
18259;SDS011;9256;52.236;5.712;2024-01-06T08:56:24;26.77;;;10.27;;
18259;SDS011;9256;52.236;5.712;2024-01-06T08:58:52;26.77;;;9.27;;
18259;SDS011;9256;52.236;5.712;2024-01-06T09:01:19;26.60;;;9.73;;
18259;SDS011;9256;52.236;5.712;2024-01-06T09:03:47;26.87;;;9.50;;
18259;SDS011;9256;52.236;5.712;2024-01-06T09:06:15;29.27;;;11.82;;
18259;SDS011;9256;52.236;5.712;2024-01-06T09:08:42;24.67;;;9.20;;
18259;SDS011;9256;52.236;5.712;2024-01-06T09:11:09;27.77;;;9.50;;
18259;SDS011;9256;52.236;5.712;2024-01-06T09:13:36;25.73;;;10.03;;
18259;SDS011;9256;52.236;5.712;2024-01-06T09:16:05;23.57;;;9.30;;
18259;SDS011;9256;52.236;5.712;2024-01-06T09:18:32;23.63;;;10.13;;
18259;SDS011;9256;52.236;5.712;2024-01-06T09:21:01;29.60;;;11.20;;
18259;SDS011;9256;52.236;5.712;2024-01-06T09:23:29;63.87;;;24.90;;
18259;SDS011;9256;52.236;5.712;2024-01-06T09:25:56;27.77;;;11.23;;
18259;SDS011;9256;52.236;5.712;2024-01-06T09:28:24;41.53;;;15.00;;
18259;SDS011;9256;52.236;5.712;2024-01-06T09:30:51;44.90;;;20.87;;
18259;SDS011;9256;52.236;5.712;2024-01-06T09:33:22;67.73;;;28.23;;
18259;SDS011;9256;52.236;5.712;2024-01-06T09:35:49;36.17;;;14.60;;
18259;SDS011;9256;52.236;5.712;2024-01-06T09:38:16;69.37;;;25.20;;
18259;SDS011;9256;52.236;5.712;2024-01-06T09:40:44;87.63;;;29.10;;
18259;SDS011;9256;52.236;5.712;2024-01-06T09:43:12;45.73;;;18.20;;
18259;SDS011;9256;52.236;5.712;2024-01-06T09:45:39;23.00;;;9.30;;
18259;SDS011;9256;52.236;5.712;2024-01-06T09:48:09;23.53;;;9.53;;
18259;SDS011;9256;52.236;5.712;2024-01-06T09:50:39;22.17;;;9.50;;
18259;SDS011;9256;52.236;5.712;2024-01-06T09:53:08;22.43;;;8.87;;
18259;SDS011;9256;52.236;5.712;2024-01-06T09:55:36;21.93;;;9.13;;
18259;SDS011;9256;52.236;5.712;2024-01-06T09:58:03;23.53;;;10.40;;
18259;SDS011;9256;52.236;5.712;2024-01-06T10:00:31;21.60;;;8.90;;
18259;SDS011;9256;52.236;5.712;2024-01-06T10:02:58;19.40;;;9.23;;
18259;SDS011;9256;52.236;5.712;2024-01-06T10:05:25;22.65;;;11.70;;
18259;SDS011;9256;52.236;5.712;2024-01-06T10:07:54;34.40;;;14.73;;
18259;SDS011;9256;52.236;5.712;2024-01-06T10:10:22;34.83;;;13.63;;
18259;SDS011;9256;52.236;5.712;2024-01-06T10:12:52;33.60;;;12.70;;
18259;SDS011;9256;52.236;5.712;2024-01-06T10:15:21;35.90;;;12.87;;
18259;SDS011;9256;52.236;5.712;2024-01-06T10:17:48;47.70;;;17.63;;
18259;SDS011;9256;52.236;5.712;2024-01-06T10:20:15;34.07;;;11.80;;
18259;SDS011;9256;52.236;5.712;2024-01-06T10:22:45;38.30;;;12.47;;
18259;SDS011;9256;52.236;5.712;2024-01-06T10:25:14;19.90;;;8.57;;
18259;SDS011;9256;52.236;5.712;2024-01-06T10:27:41;21.00;;;8.40;;
18259;SDS011;9256;52.236;5.712;2024-01-06T10:30:09;21.57;;;8.97;;
18259;SDS011;9256;52.236;5.712;2024-01-06T10:32:38;26.33;;;11.43;;
18259;SDS011;9256;52.236;5.712;2024-01-06T10:35:06;23.73;;;10.30;;
18259;SDS011;9256;52.236;5.712;2024-01-06T10:37:34;22.77;;;10.00;;
18259;SDS011;9256;52.236;5.712;2024-01-06T10:40:05;21.73;;;9.00;;
18259;SDS011;9256;52.236;5.712;2024-01-06T10:42:34;21.10;;;10.03;;
18259;SDS011;9256;52.236;5.712;2024-01-06T10:45:05;25.63;;;9.47;;
18259;SDS011;9256;52.236;5.712;2024-01-06T10:47:34;26.83;;;10.97;;
18259;SDS011;9256;52.236;5.712;2024-01-06T10:50:01;24.60;;;10.37;;
18259;SDS011;9256;52.236;5.712;2024-01-06T10:52:28;21.40;;;8.83;;
18259;SDS011;9256;52.236;5.712;2024-01-06T10:54:56;24.97;;;9.67;;
18259;SDS011;9256;52.236;5.712;2024-01-06T10:57:24;23.20;;;10.40;;
18259;SDS011;9256;52.236;5.712;2024-01-06T10:59:54;25.53;;;10.00;;
18259;SDS011;9256;52.236;5.712;2024-01-06T11:02:23;28.00;;;10.63;;
18259;SDS011;9256;52.236;5.712;2024-01-06T11:04:51;24.17;;;9.27;;
18259;SDS011;9256;52.236;5.712;2024-01-06T11:07:19;26.77;;;10.43;;
18259;SDS011;9256;52.236;5.712;2024-01-06T11:09:48;24.70;;;9.80;;
18259;SDS011;9256;52.236;5.712;2024-01-06T11:12:17;26.47;;;11.67;;
18259;SDS011;9256;52.236;5.712;2024-01-06T11:14:44;27.83;;;10.53;;
18259;SDS011;9256;52.236;5.712;2024-01-06T11:17:13;26.97;;;10.50;;
18259;SDS011;9256;52.236;5.712;2024-01-06T11:20:10;22.23;;;8.77;;
18259;SDS011;9256;52.236;5.712;2024-01-06T11:22:37;24.93;;;9.83;;
18259;SDS011;9256;52.236;5.712;2024-01-06T11:25:05;33.93;;;13.03;;
18259;SDS011;9256;52.236;5.712;2024-01-06T11:27:33;37.53;;;13.27;;
18259;SDS011;9256;52.236;5.712;2024-01-06T11:30:01;35.20;;;14.27;;
18259;SDS011;9256;52.236;5.712;2024-01-06T11:32:32;52.88;;;21.35;;
18259;SDS011;9256;52.236;5.712;2024-01-06T11:35:05;44.87;;;15.50;;
18259;SDS011;9256;52.236;5.712;2024-01-06T11:37:37;99.83;;;28.20;;
18259;SDS011;9256;52.236;5.712;2024-01-06T11:40:07;82.90;;;22.67;;
18259;SDS011;9256;52.236;5.712;2024-01-06T11:42:35;96.63;;;25.10;;
18259;SDS011;9256;52.236;5.712;2024-01-06T11:45:02;115.07;;;28.93;;
18259;SDS011;9256;52.236;5.712;2024-01-06T11:47:32;54.03;;;23.08;;
18259;SDS011;9256;52.236;5.712;2024-01-06T11:50:00;42.87;;;15.13;;
18259;SDS011;9256;52.236;5.712;2024-01-06T11:52:29;73.30;;;26.83;;
18259;SDS011;9256;52.236;5.712;2024-01-06T11:54:56;58.90;;;20.83;;
18259;SDS011;9256;52.236;5.712;2024-01-06T11:57:24;49.93;;;18.13;;
18259;SDS011;9256;52.236;5.712;2024-01-06T11:59:52;33.43;;;12.53;;
18259;SDS011;9256;52.236;5.712;2024-01-06T12:02:20;52.93;;;24.23;;
18259;SDS011;9256;52.236;5.712;2024-01-06T12:04:49;56.43;;;22.73;;
18259;SDS011;9256;52.236;5.712;2024-01-06T12:07:19;65.13;;;23.67;;
18259;SDS011;9256;52.236;5.712;2024-01-06T12:09:47;39.73;;;16.43;;
18259;SDS011;9256;52.236;5.712;2024-01-06T12:12:15;77.10;;;30.83;;
18259;SDS011;9256;52.236;5.712;2024-01-06T12:14:42;59.70;;;24.47;;
18259;SDS011;9256;52.236;5.712;2024-01-06T12:17:11;35.13;;;14.03;;
18259;SDS011;9256;52.236;5.712;2024-01-06T12:19:38;44.77;;;19.40;;
18259;SDS011;9256;52.236;5.712;2024-01-06T12:22:09;62.67;;;27.70;;
18259;SDS011;9256;52.236;5.712;2024-01-06T12:24:37;35.17;;;16.30;;
18259;SDS011;9256;52.236;5.712;2024-01-06T12:27:06;31.47;;;12.33;;
18259;SDS011;9256;52.236;5.712;2024-01-06T12:29:36;29.87;;;12.37;;
18259;SDS011;9256;52.236;5.712;2024-01-06T12:32:05;32.17;;;12.53;;
18259;SDS011;9256;52.236;5.712;2024-01-06T12:34:33;38.33;;;13.80;;
18259;SDS011;9256;52.236;5.712;2024-01-06T12:37:00;54.00;;;27.07;;
18259;SDS011;9256;52.236;5.712;2024-01-06T12:39:29;35.40;;;16.13;;
18259;SDS011;9256;52.236;5.712;2024-01-06T12:41:57;28.20;;;11.63;;
18259;SDS011;9256;52.236;5.712;2024-01-06T12:44:26;44.40;;;21.37;;
18259;SDS011;9256;52.236;5.712;2024-01-06T12:46:53;37.10;;;16.63;;
18259;SDS011;9256;52.236;5.712;2024-01-06T12:49:20;38.83;;;17.03;;
18259;SDS011;9256;52.236;5.712;2024-01-06T12:51:47;64.17;;;26.40;;
18259;SDS011;9256;52.236;5.712;2024-01-06T12:54:17;41.13;;;16.20;;
18259;SDS011;9256;52.236;5.712;2024-01-06T12:56:45;30.23;;;12.03;;
18259;SDS011;9256;52.236;5.712;2024-01-06T12:59:12;36.77;;;13.53;;
18259;SDS011;9256;52.236;5.712;2024-01-06T13:01:40;58.80;;;21.37;;
18259;SDS011;9256;52.236;5.712;2024-01-06T13:04:07;34.17;;;12.63;;
18259;SDS011;9256;52.236;5.712;2024-01-06T13:06:34;40.23;;;14.10;;
18259;SDS011;9256;52.236;5.712;2024-01-06T13:09:02;64.93;;;20.83;;
18259;SDS011;9256;52.236;5.712;2024-01-06T13:11:31;44.53;;;16.37;;
18259;SDS011;9256;52.236;5.712;2024-01-06T13:14:00;34.77;;;12.53;;
18259;SDS011;9256;52.236;5.712;2024-01-06T13:16:28;104.03;;;40.92;;
18259;SDS011;9256;52.236;5.712;2024-01-06T13:18:55;40.73;;;18.27;;
18259;SDS011;9256;52.236;5.712;2024-01-06T13:21:22;40.20;;;15.63;;
18259;SDS011;9256;52.236;5.712;2024-01-06T13:23:50;35.23;;;14.20;;
18259;SDS011;9256;52.236;5.712;2024-01-06T13:26:17;36.80;;;15.27;;
18259;SDS011;9256;52.236;5.712;2024-01-06T13:28:44;33.90;;;13.57;;
18259;SDS011;9256;52.236;5.712;2024-01-06T13:31:13;33.00;;;13.50;;
18259;SDS011;9256;52.236;5.712;2024-01-06T13:33:40;35.87;;;15.43;;
18259;SDS011;9256;52.236;5.712;2024-01-06T13:36:08;30.37;;;10.83;;
18259;SDS011;9256;52.236;5.712;2024-01-06T13:38:37;30.47;;;12.43;;
18259;SDS011;9256;52.236;5.712;2024-01-06T13:41:05;28.93;;;11.47;;
18259;SDS011;9256;52.236;5.712;2024-01-06T13:43:32;32.63;;;12.63;;
18259;SDS011;9256;52.236;5.712;2024-01-06T13:45:59;32.40;;;13.30;;
18259;SDS011;9256;52.236;5.712;2024-01-06T13:48:30;33.73;;;13.90;;
18259;SDS011;9256;52.236;5.712;2024-01-06T13:50:57;34.70;;;12.30;;
18259;SDS011;9256;52.236;5.712;2024-01-06T13:53:25;37.47;;;14.57;;
18259;SDS011;9256;52.236;5.712;2024-01-06T13:55:54;33.80;;;14.43;;
18259;SDS011;9256;52.236;5.712;2024-01-06T13:58:21;34.13;;;12.53;;
18259;SDS011;9256;52.236;5.712;2024-01-06T14:00:48;32.67;;;12.13;;
18259;SDS011;9256;52.236;5.712;2024-01-06T14:03:15;36.80;;;14.10;;
18259;SDS011;9256;52.236;5.712;2024-01-06T14:05:47;33.97;;;13.93;;
18259;SDS011;9256;52.236;5.712;2024-01-06T14:08:16;57.37;;;24.87;;
18259;SDS011;9256;52.236;5.712;2024-01-06T14:10:43;73.07;;;30.63;;
18259;SDS011;9256;52.236;5.712;2024-01-06T14:13:10;41.60;;;16.80;;
18259;SDS011;9256;52.236;5.712;2024-01-06T14:15:38;32.67;;;12.93;;
18259;SDS011;9256;52.236;5.712;2024-01-06T14:18:05;36.37;;;12.57;;
18259;SDS011;9256;52.236;5.712;2024-01-06T14:20:35;32.63;;;12.77;;
18259;SDS011;9256;52.236;5.712;2024-01-06T14:23:04;32.30;;;12.20;;
18259;SDS011;9256;52.236;5.712;2024-01-06T14:25:31;31.73;;;11.97;;
18259;SDS011;9256;52.236;5.712;2024-01-06T14:27:58;29.00;;;11.67;;
18259;SDS011;9256;52.236;5.712;2024-01-06T14:30:26;48.30;;;17.60;;
18259;SDS011;9256;52.236;5.712;2024-01-06T14:32:54;35.67;;;14.00;;
18259;SDS011;9256;52.236;5.712;2024-01-06T14:35:21;30.40;;;12.43;;
18259;SDS011;9256;52.236;5.712;2024-01-06T14:37:48;31.03;;;12.17;;
18259;SDS011;9256;52.236;5.712;2024-01-06T14:40:19;30.50;;;12.30;;